createdAt,value
2022-10-12T00:00:02.897Z,0
2022-10-12T00:05:02.516Z,0
2022-10-12T00:10:03.258Z,0
2022-10-12T00:15:02.896Z,0
2022-10-12T00:20:02.563Z,0
2022-10-12T00:25:03.020Z,0.11
2022-10-12T00:30:05.394Z,0
2022-10-12T00:35:03.103Z,0
2022-10-12T00:40:03.526Z,0
2022-10-12T00:45:03.213Z,0
2022-10-12T00:50:02.800Z,0
2022-10-12T00:55:04.644Z,0
2022-10-12T01:00:02.985Z,0
2022-10-12T01:05:02.810Z,0
2022-10-12T01:10:03.291Z,0
2022-10-12T01:15:02.817Z,0
2022-10-12T01:20:03.206Z,0
2022-10-12T01:25:03.084Z,0
2022-10-12T01:30:02.758Z,0
2022-10-12T01:35:03.240Z,0
2022-10-12T01:40:02.867Z,0
2022-10-12T01:45:02.864Z,0
2022-10-12T01:50:02.881Z,0
2022-10-12T01:55:03.562Z,0
2022-10-12T02:00:03.084Z,0
2022-10-12T02:05:02.780Z,0
2022-10-12T02:10:03.443Z,0
2022-10-12T02:15:03.120Z,0
2022-10-12T02:20:02.887Z,0
2022-10-12T02:25:02.624Z,0
2022-10-12T02:30:03.298Z,0
2022-10-12T02:35:03.002Z,0
2022-10-12T02:40:02.285Z,0
2022-10-12T02:45:03.349Z,0
2022-10-12T02:50:03.111Z,0
2022-10-12T02:55:03.724Z,0
2022-10-12T03:00:03.470Z,0
2022-10-12T03:05:03.106Z,0
2022-10-12T03:10:02.702Z,0
2022-10-12T03:15:03.480Z,0
2022-10-12T03:20:03.157Z,0
2022-10-12T03:25:02.751Z,0
2022-10-12T03:30:02.610Z,0
2022-10-12T03:35:03.289Z,0
2022-10-12T03:40:03.146Z,0
2022-10-12T03:45:02.987Z,0
2022-10-12T03:50:02.565Z,0
2022-10-12T03:55:04.475Z,0
2022-10-12T04:00:03.122Z,0
2022-10-12T04:05:02.920Z,0
2022-10-12T04:10:02.568Z,0
2022-10-12T04:15:03.248Z,0.11
2022-10-12T04:20:02.986Z,0
2022-10-12T04:25:02.920Z,0
2022-10-12T04:30:02.817Z,0
2022-10-12T04:35:03.296Z,0
2022-10-12T04:40:03.042Z,0
2022-10-12T04:45:02.817Z,0
2022-10-12T04:50:03.433Z,0.11
2022-10-12T05:00:02.666Z,2.04
2022-10-12T05:05:03.356Z,5.09
2022-10-12T05:10:03.139Z,5
2022-10-12T05:15:02.739Z,16.67
2022-10-12T05:20:03.449Z,36.67
2022-10-12T05:25:03.150Z,71.67
2022-10-12T05:30:02.947Z,120
2022-10-12T05:35:02.624Z,183.33
2022-10-12T05:40:03.414Z,263.33
2022-10-12T05:45:03.161Z,356.67
2022-10-12T05:50:02.902Z,458.33
2022-10-12T05:55:03.586Z,578.33
2022-10-12T06:00:03.240Z,696.67
2022-10-12T06:05:02.838Z,858.33
2022-10-12T06:10:02.525Z,1020
2022-10-12T06:15:03.211Z,1211.67
2022-10-12T06:20:02.902Z,1420
2022-10-12T06:25:02.250Z,1793.33
2022-10-12T06:30:03.278Z,1948.33
2022-10-12T06:35:02.845Z,2188.33
2022-10-12T06:40:02.480Z,2453.33
2022-10-12T06:45:03.218Z,2690
2022-10-12T06:50:02.785Z,2988.33
2022-10-12T06:55:03.415Z,3128.33
2022-10-12T07:00:03.155Z,3466.67
2022-10-12T07:05:02.808Z,4050
2022-10-12T07:10:02.597Z,4193.33
2022-10-12T07:15:03.173Z,4721.67
2022-10-12T07:20:02.881Z,3976.67
2022-10-12T07:25:02.491Z,4501.67
2022-10-12T07:30:03.191Z,4593.33
2022-10-12T07:35:03.102Z,4773.33
2022-10-12T07:40:02.904Z,6105
2022-10-12T07:45:03.409Z,4411.67
2022-10-12T07:50:02.998Z,5305
2022-10-12T07:55:03.930Z,5936.67
2022-10-12T08:00:03.424Z,7708.33
2022-10-12T08:05:03.048Z,8948.33
2022-10-12T08:10:02.691Z,9045
2022-10-12T08:15:03.202Z,8301.67
2022-10-12T08:20:02.818Z,7993.33
2022-10-12T08:25:03.451Z,8181.67
2022-10-12T08:30:03.162Z,10001.67
2022-10-12T08:35:02.724Z,11943.33
2022-10-12T08:40:03.462Z,10468.33
2022-10-12T08:45:03.279Z,10838.33
2022-10-12T08:50:02.843Z,5786.67
2022-10-12T08:55:03.610Z,6966.67
2022-10-12T09:00:03.303Z,8135
2022-10-12T09:05:02.915Z,10601.67
2022-10-12T09:10:02.687Z,10605
2022-10-12T09:15:03.381Z,10041.67
2022-10-12T09:20:02.928Z,12095
2022-10-12T09:25:02.800Z,12498.33
2022-10-12T09:30:03.533Z,12805
2022-10-12T09:35:03.146Z,12726.67
2022-10-12T09:40:02.779Z,12976.67
2022-10-12T09:45:03.492Z,13080
2022-10-12T09:50:03.085Z,12390
2022-10-12T09:55:06.817Z,9960
2022-10-12T10:00:03.475Z,12018.33
2022-10-12T10:05:03.025Z,12343.33
2022-10-12T10:10:02.734Z,13476.67
2022-10-12T10:15:03.341Z,27390
2022-10-12T10:20:02.991Z,28560
2022-10-12T10:25:02.620Z,31233.33
2022-10-12T10:30:36.533Z,29586.67
2022-10-12T10:35:02.974Z,32820
2022-10-12T10:40:02.581Z,31826.67
2022-10-12T10:45:03.259Z,29090
2022-10-12T10:50:02.842Z,27396.67
2022-10-12T10:55:04.539Z,13301.67
2022-10-12T11:00:41.084Z,12878.33
2022-10-12T11:05:03.214Z,12391.67
2022-10-12T11:10:02.814Z,12941.67
2022-10-12T11:15:02.746Z,13053.33
2022-10-12T11:20:02.960Z,13465
2022-10-12T11:25:02.878Z,13588.33
2022-10-12T11:30:10.341Z,13270
2022-10-12T11:35:03.070Z,27440
2022-10-12T11:40:02.710Z,28950
2022-10-12T11:45:03.633Z,27536.67
2022-10-12T11:50:03.200Z,12595
2022-10-12T11:55:04.167Z,12623.33
2022-10-12T12:00:03.476Z,13448.33
2022-10-12T12:05:03.085Z,12720
2022-10-12T12:10:02.710Z,10953.33
2022-10-12T12:15:03.396Z,9923.33
2022-10-12T12:20:03.041Z,10033.33
2022-10-12T12:25:02.672Z,9783.33
2022-10-12T12:30:03.356Z,9355
2022-10-12T12:35:03.033Z,9896.67
2022-10-12T12:40:02.672Z,10225
2022-10-12T12:45:03.212Z,9958.33
2022-10-12T12:50:02.948Z,9525
2022-10-12T12:55:04.370Z,8636.67
2022-10-12T13:00:03.234Z,8436.67
2022-10-12T13:05:02.848Z,8340
2022-10-12T13:10:02.779Z,7791.67
2022-10-12T13:15:03.188Z,8036.67
2022-10-12T13:20:02.829Z,7843.33
2022-10-12T13:25:03.469Z,7280
2022-10-12T13:30:03.179Z,7258.33
2022-10-12T13:35:02.733Z,6955
2022-10-12T13:40:03.381Z,6520
2022-10-12T13:45:02.929Z,6186.67
2022-10-12T13:50:02.794Z,6088.33
2022-10-12T14:00:03.004Z,5478.33
2022-10-12T14:05:02.801Z,4095
2022-10-12T14:10:03.442Z,5013.33
2022-10-12T14:15:03.074Z,4578.33
2022-10-12T14:20:02.712Z,4308.33
2022-10-12T14:25:03.352Z,4163.33
2022-10-12T14:30:02.994Z,3946.67
2022-10-12T14:35:02.715Z,3693.33
2022-10-12T14:40:03.252Z,3458.33
2022-10-12T14:45:02.844Z,3283.33
2022-10-12T14:50:03.415Z,3181.67
2022-10-12T14:55:04.258Z,3013.33
2022-10-12T15:00:02.737Z,2783.33
2022-10-12T15:05:03.419Z,2643.33
2022-10-12T15:10:03.142Z,2391.67
2022-10-12T15:15:02.797Z,2141.67
2022-10-12T15:20:03.444Z,1895
2022-10-12T15:25:03.102Z,1610
2022-10-12T15:30:03.008Z,1446.67
2022-10-12T15:35:02.653Z,1221.67
2022-10-12T15:40:03.310Z,1225
2022-10-12T15:45:03.047Z,1016.67
2022-10-12T15:50:02.668Z,833.33
2022-10-12T15:55:04.314Z,718.33
2022-10-12T16:00:03.057Z,626.67
2022-10-12T16:05:02.938Z,480
2022-10-12T16:10:02.515Z,371.67
2022-10-12T16:15:03.151Z,275
2022-10-12T16:20:02.604Z,145
2022-10-12T16:25:02.479Z,93.33
2022-10-12T16:30:03.208Z,53.33
2022-10-12T16:35:02.904Z,26.67
2022-10-12T16:40:02.521Z,11.67
2022-10-12T16:45:03.195Z,10.41
2022-10-12T16:50:02.808Z,3.96
2022-10-12T16:55:04.349Z,1.47
2022-10-12T17:00:04.139Z,0.45
2022-10-12T17:05:02.717Z,0.11
2022-10-12T17:10:03.356Z,0
2022-10-12T17:15:03.019Z,0
2022-10-12T17:25:03.407Z,0
2022-10-12T17:30:03.075Z,0
2022-10-12T17:35:02.793Z,0
2022-10-12T17:40:03.439Z,0
2022-10-12T17:45:03.466Z,0
2022-10-12T17:50:03.071Z,0
2022-10-12T17:55:04.338Z,0
2022-10-12T18:00:02.800Z,0
2022-10-12T18:05:03.321Z,0
2022-10-12T18:10:02.969Z,0
2022-10-12T18:15:02.754Z,0
2022-10-12T18:20:03.394Z,0
2022-10-12T18:25:03.259Z,0
2022-10-12T18:30:03.139Z,0
2022-10-12T18:35:02.733Z,0
2022-10-12T18:40:03.115Z,0
2022-10-12T18:45:03.070Z,0
2022-10-12T18:50:02.535Z,0
2022-10-12T18:55:04.479Z,0
2022-10-12T19:00:02.881Z,0
2022-10-12T19:05:02.497Z,0
2022-10-12T19:10:03.188Z,0
2022-10-12T19:15:02.835Z,0
2022-10-12T19:20:02.482Z,0
2022-10-12T19:25:03.128Z,0
2022-10-12T19:30:02.785Z,0
2022-10-12T19:35:03.383Z,0
2022-10-12T19:40:08.145Z,0
2022-10-12T19:45:02.739Z,0
2022-10-12T19:50:02.573Z,0
2022-10-12T19:55:04.505Z,0
2022-10-12T20:00:02.803Z,0
2022-10-12T20:05:02.700Z,0
2022-10-12T20:10:02.524Z,0
2022-10-12T20:15:03.251Z,0
2022-10-12T20:20:02.910Z,0
2022-10-12T20:25:10.185Z,0
2022-10-12T20:30:02.912Z,0
2022-10-12T20:35:02.521Z,0
2022-10-12T20:40:03.192Z,0
2022-10-12T20:45:02.825Z,0
2022-10-12T20:50:02.360Z,0
2022-10-12T20:55:04.215Z,0
2022-10-12T21:00:03.059Z,0
2022-10-12T21:05:02.720Z,0
2022-10-12T21:10:03.410Z,0
2022-10-12T21:15:03.092Z,0
2022-10-12T21:20:02.874Z,0
2022-10-12T21:25:02.481Z,0
2022-10-12T21:30:03.261Z,0
2022-10-12T21:35:02.728Z,0
2022-10-12T21:40:03.528Z,0
2022-10-12T21:45:03.220Z,0
2022-10-12T21:50:02.805Z,0
2022-10-12T21:55:03.512Z,0
2022-10-12T22:00:03.495Z,0
2022-10-12T22:05:03.123Z,0
2022-10-12T22:10:02.978Z,0
2022-10-12T22:15:02.648Z,0
2022-10-12T22:20:03.274Z,0
2022-10-12T22:25:02.911Z,0
2022-10-12T22:30:02.731Z,0
2022-10-12T22:35:03.440Z,0
2022-10-12T22:40:02.961Z,0
2022-10-12T22:45:02.740Z,0
2022-10-12T22:50:03.437Z,0
2022-10-12T22:55:04.468Z,0
2022-10-12T23:00:03.106Z,0
2022-10-12T23:05:03.426Z,0
2022-10-12T23:10:03.079Z,0
2022-10-12T23:15:02.546Z,0
2022-10-12T23:20:02.482Z,0
2022-10-12T23:25:03.120Z,0
2022-10-12T23:30:02.810Z,0
2022-10-12T23:35:02.548Z,0
2022-10-12T23:40:03.078Z,0
2022-10-12T23:45:02.727Z,0
2022-10-12T23:50:03.474Z,0
2022-10-12T23:55:04.239Z,0
